sensor_id;sensor_type;location;lat;lon;timestamp;P1;durP1;ratioP1;P2;durP2;ratioP2
5787;SDS011;2920;48.158;12.254;2022-10-10T00:01:50;6.68;;;2.25;;
5787;SDS011;2920;48.158;12.254;2022-10-10T00:04:15;3.28;;;2.00;;
5787;SDS011;2920;48.158;12.254;2022-10-10T00:06:40;4.00;;;2.08;;
5787;SDS011;2920;48.158;12.254;2022-10-10T00:09:06;4.55;;;2.00;;
5787;SDS011;2920;48.158;12.254;2022-10-10T00:11:31;3.08;;;2.10;;
5787;SDS011;2920;48.158;12.254;2022-10-10T00:13:57;4.25;;;2.55;;
5787;SDS011;2920;48.158;12.254;2022-10-10T00:16:22;3.55;;;1.83;;
5787;SDS011;2920;48.158;12.254;2022-10-10T00:18:48;2.55;;;1.70;;
5787;SDS011;2920;48.158;12.254;2022-10-10T00:21:14;3.80;;;2.63;;
5787;SDS011;2920;48.158;12.254;2022-10-10T00:23:39;4.07;;;2.65;;
5787;SDS011;2920;48.158;12.254;2022-10-10T00:26:05;3.08;;;1.73;;
5787;SDS011;2920;48.158;12.254;2022-10-10T00:28:30;3.47;;;2.10;;
5787;SDS011;2920;48.158;12.254;2022-10-10T00:30:56;2.90;;;1.80;;
5787;SDS011;2920;48.158;12.254;2022-10-10T00:33:21;5.20;;;1.80;;
5787;SDS011;2920;48.158;12.254;2022-10-10T00:35:47;2.80;;;1.95;;
5787;SDS011;2920;48.158;12.254;2022-10-10T00:38:13;4.25;;;1.83;;
5787;SDS011;2920;48.158;12.254;2022-10-10T00:40:49;3.20;;;2.10;;
5787;SDS011;2920;48.158;12.254;2022-10-10T00:43:16;2.75;;;1.92;;
5787;SDS011;2920;48.158;12.254;2022-10-10T00:45:43;4.45;;;2.30;;
5787;SDS011;2920;48.158;12.254;2022-10-10T00:48:20;5.28;;;1.85;;
5787;SDS011;2920;48.158;12.254;2022-10-10T00:51:05;3.00;;;1.70;;
5787;SDS011;2920;48.158;12.254;2022-10-10T00:56:14;4.85;;;2.08;;
5787;SDS011;2920;48.158;12.254;2022-10-10T00:58:42;6.55;;;2.45;;
5787;SDS011;2920;48.158;12.254;2022-10-10T01:01:09;3.30;;;1.80;;
5787;SDS011;2920;48.158;12.254;2022-10-10T01:03:34;2.50;;;1.83;;
5787;SDS011;2920;48.158;12.254;2022-10-10T01:06:00;2.55;;;1.83;;
5787;SDS011;2920;48.158;12.254;2022-10-10T01:08:25;4.05;;;2.25;;
5787;SDS011;2920;48.158;12.254;2022-10-10T01:11:06;3.45;;;2.22;;
5787;SDS011;2920;48.158;12.254;2022-10-10T01:13:45;2.78;;;1.90;;
5787;SDS011;2920;48.158;12.254;2022-10-10T01:22:12;4.38;;;2.17;;
5787;SDS011;2920;48.158;12.254;2022-10-10T01:29:57;4.72;;;1.98;;
5787;SDS011;2920;48.158;12.254;2022-10-10T01:32:37;3.28;;;2.08;;
5787;SDS011;2920;48.158;12.254;2022-10-10T01:43:05;3.30;;;2.22;;
5787;SDS011;2920;48.158;12.254;2022-10-10T01:45:32;4.88;;;2.58;;
5787;SDS011;2920;48.158;12.254;2022-10-10T01:47:59;4.78;;;2.05;;
5787;SDS011;2920;48.158;12.254;2022-10-10T01:50:27;4.90;;;2.25;;
5787;SDS011;2920;48.158;12.254;2022-10-10T02:03:22;6.43;;;2.20;;
5787;SDS011;2920;48.158;12.254;2022-10-10T02:06:09;4.53;;;2.92;;
5787;SDS011;2920;48.158;12.254;2022-10-10T02:08:50;2.50;;;1.85;;
5787;SDS011;2920;48.158;12.254;2022-10-10T02:11:16;4.20;;;1.98;;
5787;SDS011;2920;48.158;12.254;2022-10-10T02:13:50;2.53;;;2.08;;
5787;SDS011;2920;48.158;12.254;2022-10-10T02:16:18;2.88;;;1.98;;
5787;SDS011;2920;48.158;12.254;2022-10-10T02:18:47;6.68;;;2.20;;
5787;SDS011;2920;48.158;12.254;2022-10-10T02:21:14;3.28;;;2.17;;
5787;SDS011;2920;48.158;12.254;2022-10-10T02:23:40;3.08;;;2.30;;
5787;SDS011;2920;48.158;12.254;2022-10-10T02:26:07;4.05;;;2.10;;
5787;SDS011;2920;48.158;12.254;2022-10-10T02:31:00;2.78;;;2.08;;
5787;SDS011;2920;48.158;12.254;2022-10-10T02:33:37;3.22;;;1.88;;
5787;SDS011;2920;48.158;12.254;2022-10-10T02:36:09;5.90;;;2.30;;
5787;SDS011;2920;48.158;12.254;2022-10-10T02:38:35;3.75;;;2.13;;
5787;SDS011;2920;48.158;12.254;2022-10-10T02:41:00;5.10;;;2.47;;
5787;SDS011;2920;48.158;12.254;2022-10-10T02:43:28;2.67;;;2.10;;
5787;SDS011;2920;48.158;12.254;2022-10-10T02:45:55;2.80;;;1.85;;
5787;SDS011;2920;48.158;12.254;2022-10-10T02:48:21;5.75;;;2.30;;
5787;SDS011;2920;48.158;12.254;2022-10-10T02:50:46;3.72;;;2.10;;
5787;SDS011;2920;48.158;12.254;2022-10-10T02:53:12;2.40;;;1.70;;
5787;SDS011;2920;48.158;12.254;2022-10-10T02:55:37;2.90;;;1.70;;
5787;SDS011;2920;48.158;12.254;2022-10-10T02:58:02;2.22;;;1.77;;
5787;SDS011;2920;48.158;12.254;2022-10-10T03:00:28;2.17;;;1.90;;
5787;SDS011;2920;48.158;12.254;2022-10-10T03:02:54;2.88;;;1.88;;
5787;SDS011;2920;48.158;12.254;2022-10-10T03:05:19;2.80;;;2.00;;
5787;SDS011;2920;48.158;12.254;2022-10-10T03:07:44;3.50;;;2.38;;
5787;SDS011;2920;48.158;12.254;2022-10-10T03:10:10;5.15;;;2.60;;
5787;SDS011;2920;48.158;12.254;2022-10-10T03:12:35;4.40;;;2.45;;
5787;SDS011;2920;48.158;12.254;2022-10-10T03:15:01;3.22;;;1.92;;
5787;SDS011;2920;48.158;12.254;2022-10-10T03:17:26;3.28;;;2.47;;
5787;SDS011;2920;48.158;12.254;2022-10-10T03:19:51;4.35;;;2.70;;
5787;SDS011;2920;48.158;12.254;2022-10-10T03:22:17;4.07;;;3.03;;
5787;SDS011;2920;48.158;12.254;2022-10-10T03:24:42;2.58;;;1.98;;
5787;SDS011;2920;48.158;12.254;2022-10-10T03:27:07;4.65;;;2.72;;
5787;SDS011;2920;48.158;12.254;2022-10-10T03:29:32;3.50;;;2.85;;
5787;SDS011;2920;48.158;12.254;2022-10-10T03:31:58;4.00;;;2.80;;
5787;SDS011;2920;48.158;12.254;2022-10-10T03:34:23;5.13;;;2.47;;
5787;SDS011;2920;48.158;12.254;2022-10-10T03:36:48;3.03;;;2.28;;
5787;SDS011;2920;48.158;12.254;2022-10-10T03:39:14;2.58;;;1.95;;
5787;SDS011;2920;48.158;12.254;2022-10-10T03:41:39;3.17;;;2.28;;
5787;SDS011;2920;48.158;12.254;2022-10-10T03:44:04;3.53;;;2.67;;
5787;SDS011;2920;48.158;12.254;2022-10-10T03:46:30;3.85;;;2.50;;
5787;SDS011;2920;48.158;12.254;2022-10-10T03:48:55;3.53;;;2.58;;
5787;SDS011;2920;48.158;12.254;2022-10-10T03:51:20;4.40;;;2.40;;
5787;SDS011;2920;48.158;12.254;2022-10-10T03:53:46;4.03;;;2.35;;
5787;SDS011;2920;48.158;12.254;2022-10-10T03:56:11;3.00;;;2.10;;
5787;SDS011;2920;48.158;12.254;2022-10-10T03:58:36;4.70;;;2.60;;
5787;SDS011;2920;48.158;12.254;2022-10-10T04:01:02;3.08;;;2.13;;
5787;SDS011;2920;48.158;12.254;2022-10-10T04:03:28;5.05;;;2.30;;
5787;SDS011;2920;48.158;12.254;2022-10-10T04:05:53;5.47;;;2.20;;
5787;SDS011;2920;48.158;12.254;2022-10-10T04:08:19;2.40;;;1.60;;
5787;SDS011;2920;48.158;12.254;2022-10-10T04:10:48;5.93;;;3.45;;
5787;SDS011;2920;48.158;12.254;2022-10-10T04:13:14;5.72;;;3.22;;
5787;SDS011;2920;48.158;12.254;2022-10-10T04:15:40;15.27;;;7.18;;
5787;SDS011;2920;48.158;12.254;2022-10-10T04:18:05;10.02;;;5.65;;
5787;SDS011;2920;48.158;12.254;2022-10-10T04:20:31;11.90;;;5.97;;
5787;SDS011;2920;48.158;12.254;2022-10-10T04:22:56;9.18;;;5.47;;
5787;SDS011;2920;48.158;12.254;2022-10-10T04:25:21;8.25;;;4.07;;
5787;SDS011;2920;48.158;12.254;2022-10-10T04:27:47;4.93;;;3.40;;
5787;SDS011;2920;48.158;12.254;2022-10-10T04:30:12;6.03;;;3.45;;
5787;SDS011;2920;48.158;12.254;2022-10-10T04:32:39;4.15;;;2.80;;
5787;SDS011;2920;48.158;12.254;2022-10-10T04:35:04;4.15;;;2.65;;
5787;SDS011;2920;48.158;12.254;2022-10-10T04:37:30;5.20;;;2.72;;
5787;SDS011;2920;48.158;12.254;2022-10-10T04:39:55;4.70;;;3.17;;
5787;SDS011;2920;48.158;12.254;2022-10-10T04:42:21;4.68;;;4.20;;
5787;SDS011;2920;48.158;12.254;2022-10-10T04:44:46;3.63;;;2.58;;
5787;SDS011;2920;48.158;12.254;2022-10-10T04:47:12;3.78;;;2.70;;
5787;SDS011;2920;48.158;12.254;2022-10-10T04:49:37;3.60;;;2.25;;
5787;SDS011;2920;48.158;12.254;2022-10-10T04:52:03;2.65;;;2.08;;
5787;SDS011;2920;48.158;12.254;2022-10-10T04:54:28;3.35;;;2.30;;
5787;SDS011;2920;48.158;12.254;2022-10-10T04:56:53;2.72;;;2.10;;
5787;SDS011;2920;48.158;12.254;2022-10-10T04:59:19;5.97;;;2.22;;
5787;SDS011;2920;48.158;12.254;2022-10-10T05:01:44;2.80;;;2.17;;
5787;SDS011;2920;48.158;12.254;2022-10-10T05:04:09;2.72;;;1.92;;
5787;SDS011;2920;48.158;12.254;2022-10-10T05:06:35;4.72;;;2.55;;
5787;SDS011;2920;48.158;12.254;2022-10-10T05:09:00;3.75;;;2.33;;
5787;SDS011;2920;48.158;12.254;2022-10-10T05:11:26;3.13;;;2.20;;
5787;SDS011;2920;48.158;12.254;2022-10-10T05:13:51;3.58;;;2.50;;
5787;SDS011;2920;48.158;12.254;2022-10-10T05:16:17;3.33;;;2.40;;
5787;SDS011;2920;48.158;12.254;2022-10-10T05:18:42;2.92;;;2.25;;
5787;SDS011;2920;48.158;12.254;2022-10-10T05:21:08;3.55;;;2.47;;
5787;SDS011;2920;48.158;12.254;2022-10-10T05:23:35;3.38;;;2.80;;
5787;SDS011;2920;48.158;12.254;2022-10-10T05:26:02;4.82;;;2.90;;
5787;SDS011;2920;48.158;12.254;2022-10-10T05:28:28;3.65;;;2.45;;
5787;SDS011;2920;48.158;12.254;2022-10-10T05:30:53;4.25;;;2.67;;
5787;SDS011;2920;48.158;12.254;2022-10-10T05:33:18;2.90;;;2.00;;
5787;SDS011;2920;48.158;12.254;2022-10-10T05:35:44;3.90;;;2.00;;
5787;SDS011;2920;48.158;12.254;2022-10-10T05:38:09;3.10;;;1.80;;
5787;SDS011;2920;48.158;12.254;2022-10-10T05:40:37;4.03;;;2.50;;
5787;SDS011;2920;48.158;12.254;2022-10-10T05:43:03;3.53;;;2.38;;
5787;SDS011;2920;48.158;12.254;2022-10-10T05:45:29;3.58;;;2.15;;
5787;SDS011;2920;48.158;12.254;2022-10-10T05:47:54;3.42;;;2.30;;
5787;SDS011;2920;48.158;12.254;2022-10-10T05:50:33;4.05;;;2.50;;
5787;SDS011;2920;48.158;12.254;2022-10-10T05:53:00;3.00;;;2.20;;
5787;SDS011;2920;48.158;12.254;2022-10-10T05:55:25;3.13;;;2.17;;
5787;SDS011;2920;48.158;12.254;2022-10-10T05:57:51;4.05;;;2.03;;
5787;SDS011;2920;48.158;12.254;2022-10-10T06:00:16;4.45;;;2.45;;
5787;SDS011;2920;48.158;12.254;2022-10-10T06:02:42;4.38;;;2.20;;
5787;SDS011;2920;48.158;12.254;2022-10-10T06:05:07;3.42;;;2.30;;
5787;SDS011;2920;48.158;12.254;2022-10-10T06:07:33;2.63;;;1.85;;
5787;SDS011;2920;48.158;12.254;2022-10-10T06:09:58;4.10;;;2.67;;
5787;SDS011;2920;48.158;12.254;2022-10-10T06:12:24;3.50;;;2.58;;
5787;SDS011;2920;48.158;12.254;2022-10-10T06:14:49;4.00;;;2.30;;
5787;SDS011;2920;48.158;12.254;2022-10-10T06:17:14;3.40;;;2.05;;
5787;SDS011;2920;48.158;12.254;2022-10-10T06:19:40;3.00;;;1.92;;
5787;SDS011;2920;48.158;12.254;2022-10-10T06:22:05;2.97;;;1.92;;
5787;SDS011;2920;48.158;12.254;2022-10-10T06:24:30;4.10;;;2.00;;
5787;SDS011;2920;48.158;12.254;2022-10-10T06:26:56;4.20;;;2.40;;
5787;SDS011;2920;48.158;12.254;2022-10-10T06:29:21;5.88;;;2.67;;
5787;SDS011;2920;48.158;12.254;2022-10-10T06:31:46;3.22;;;2.30;;
5787;SDS011;2920;48.158;12.254;2022-10-10T06:34:12;4.68;;;2.38;;
5787;SDS011;2920;48.158;12.254;2022-10-10T06:36:37;7.18;;;2.90;;
5787;SDS011;2920;48.158;12.254;2022-10-10T06:39:02;3.97;;;2.50;;
5787;SDS011;2920;48.158;12.254;2022-10-10T06:41:28;4.55;;;3.10;;
5787;SDS011;2920;48.158;12.254;2022-10-10T06:43:53;4.93;;;3.05;;
5787;SDS011;2920;48.158;12.254;2022-10-10T06:46:19;3.65;;;2.42;;
5787;SDS011;2920;48.158;12.254;2022-10-10T06:48:44;5.70;;;2.70;;
5787;SDS011;2920;48.158;12.254;2022-10-10T06:51:12;4.28;;;2.55;;
5787;SDS011;2920;48.158;12.254;2022-10-10T06:53:39;3.75;;;2.05;;
5787;SDS011;2920;48.158;12.254;2022-10-10T06:56:04;6.28;;;3.13;;
5787;SDS011;2920;48.158;12.254;2022-10-10T06:58:30;5.40;;;3.47;;
5787;SDS011;2920;48.158;12.254;2022-10-10T07:00:57;6.32;;;4.13;;
5787;SDS011;2920;48.158;12.254;2022-10-10T07:03:24;5.63;;;3.60;;
5787;SDS011;2920;48.158;12.254;2022-10-10T07:05:50;4.95;;;3.33;;
5787;SDS011;2920;48.158;12.254;2022-10-10T07:08:16;6.43;;;3.53;;
5787;SDS011;2920;48.158;12.254;2022-10-10T07:10:42;7.65;;;4.00;;
5787;SDS011;2920;48.158;12.254;2022-10-10T07:13:07;9.80;;;4.70;;
5787;SDS011;2920;48.158;12.254;2022-10-10T07:15:32;7.32;;;4.28;;
5787;SDS011;2920;48.158;12.254;2022-10-10T07:17:58;7.95;;;4.32;;
5787;SDS011;2920;48.158;12.254;2022-10-10T07:20:24;6.28;;;3.72;;
5787;SDS011;2920;48.158;12.254;2022-10-10T07:22:50;6.15;;;3.95;;
5787;SDS011;2920;48.158;12.254;2022-10-10T07:25:16;8.00;;;4.40;;
5787;SDS011;2920;48.158;12.254;2022-10-10T07:27:41;5.72;;;4.45;;
5787;SDS011;2920;48.158;12.254;2022-10-10T07:30:07;10.75;;;4.85;;
5787;SDS011;2920;48.158;12.254;2022-10-10T07:32:33;8.80;;;5.03;;
5787;SDS011;2920;48.158;12.254;2022-10-10T07:34:58;6.85;;;4.53;;
5787;SDS011;2920;48.158;12.254;2022-10-10T07:37:23;10.95;;;6.05;;
5787;SDS011;2920;48.158;12.254;2022-10-10T07:39:51;9.95;;;4.95;;
5787;SDS011;2920;48.158;12.254;2022-10-10T07:42:16;12.52;;;5.35;;
5787;SDS011;2920;48.158;12.254;2022-10-10T07:44:42;8.00;;;4.97;;
5787;SDS011;2920;48.158;12.254;2022-10-10T07:47:07;7.45;;;4.40;;
5787;SDS011;2920;48.158;12.254;2022-10-10T07:49:33;7.72;;;4.68;;
5787;SDS011;2920;48.158;12.254;2022-10-10T07:51:58;8.10;;;5.07;;
5787;SDS011;2920;48.158;12.254;2022-10-10T07:54:23;5.55;;;3.67;;
5787;SDS011;2920;48.158;12.254;2022-10-10T07:56:49;6.20;;;4.32;;
5787;SDS011;2920;48.158;12.254;2022-10-10T07:59:14;8.30;;;4.85;;
5787;SDS011;2920;48.158;12.254;2022-10-10T08:01:39;10.18;;;4.57;;
5787;SDS011;2920;48.158;12.254;2022-10-10T08:04:04;9.60;;;4.15;;
5787;SDS011;2920;48.158;12.254;2022-10-10T08:06:30;8.43;;;4.18;;
5787;SDS011;2920;48.158;12.254;2022-10-10T08:08:55;7.70;;;4.75;;
5787;SDS011;2920;48.158;12.254;2022-10-10T08:11:21;5.45;;;4.22;;
5787;SDS011;2920;48.158;12.254;2022-10-10T08:13:46;8.77;;;4.47;;
5787;SDS011;2920;48.158;12.254;2022-10-10T08:16:12;8.93;;;4.05;;
5787;SDS011;2920;48.158;12.254;2022-10-10T08:18:37;6.03;;;4.03;;
5787;SDS011;2920;48.158;12.254;2022-10-10T08:21:04;4.93;;;3.10;;
5787;SDS011;2920;48.158;12.254;2022-10-10T08:23:30;3.88;;;3.33;;
5787;SDS011;2920;48.158;12.254;2022-10-10T08:25:57;8.98;;;4.15;;
5787;SDS011;2920;48.158;12.254;2022-10-10T08:28:24;4.88;;;3.15;;
5787;SDS011;2920;48.158;12.254;2022-10-10T08:30:49;8.70;;;3.97;;
5787;SDS011;2920;48.158;12.254;2022-10-10T08:33:15;6.55;;;3.03;;
5787;SDS011;2920;48.158;12.254;2022-10-10T08:35:40;6.10;;;3.97;;
5787;SDS011;2920;48.158;12.254;2022-10-10T08:38:05;8.88;;;3.25;;
5787;SDS011;2920;48.158;12.254;2022-10-10T08:40:32;5.20;;;3.55;;
5787;SDS011;2920;48.158;12.254;2022-10-10T08:42:59;6.93;;;3.20;;
5787;SDS011;2920;48.158;12.254;2022-10-10T08:45:27;5.63;;;3.22;;
5787;SDS011;2920;48.158;12.254;2022-10-10T08:47:55;2.97;;;2.38;;
5787;SDS011;2920;48.158;12.254;2022-10-10T08:55:32;3.17;;;2.38;;
5787;SDS011;2920;48.158;12.254;2022-10-10T09:00:44;6.47;;;2.80;;
5787;SDS011;2920;48.158;12.254;2022-10-10T09:03:17;11.43;;;3.38;;
5787;SDS011;2920;48.158;12.254;2022-10-10T09:05:58;5.72;;;3.78;;
5787;SDS011;2920;48.158;12.254;2022-10-10T09:14:31;7.30;;;3.58;;
5787;SDS011;2920;48.158;12.254;2022-10-10T09:16:35;6.82;;;3.38;;
5787;SDS011;2920;48.158;12.254;2022-10-10T09:21:48;7.10;;;3.15;;
5787;SDS011;2920;48.158;12.254;2022-10-10T09:24:16;4.78;;;2.97;;
5787;SDS011;2920;48.158;12.254;2022-10-10T09:26:46;10.02;;;2.78;;
5787;SDS011;2920;48.158;12.254;2022-10-10T09:29:22;8.10;;;3.42;;
5787;SDS011;2920;48.158;12.254;2022-10-10T09:31:53;2.92;;;2.40;;
5787;SDS011;2920;48.158;12.254;2022-10-10T09:34:37;4.13;;;2.65;;
5787;SDS011;2920;48.158;12.254;2022-10-10T09:37:09;7.88;;;3.10;;
5787;SDS011;2920;48.158;12.254;2022-10-10T09:39:43;3.92;;;2.67;;
5787;SDS011;2920;48.158;12.254;2022-10-10T09:42:24;4.50;;;2.95;;
5787;SDS011;2920;48.158;12.254;2022-10-10T09:44:55;5.20;;;2.70;;
5787;SDS011;2920;48.158;12.254;2022-10-10T09:47:21;4.75;;;2.95;;
5787;SDS011;2920;48.158;12.254;2022-10-10T09:49:46;3.17;;;2.60;;
5787;SDS011;2920;48.158;12.254;2022-10-10T09:54:43;4.32;;;2.63;;
5787;SDS011;2920;48.158;12.254;2022-10-10T09:57:08;3.90;;;2.63;;
5787;SDS011;2920;48.158;12.254;2022-10-10T09:59:40;7.32;;;2.95;;
5787;SDS011;2920;48.158;12.254;2022-10-10T10:02:26;7.13;;;3.05;;
5787;SDS011;2920;48.158;12.254;2022-10-10T10:04:52;5.47;;;2.90;;
5787;SDS011;2920;48.158;12.254;2022-10-10T10:09:56;6.60;;;3.17;;
5787;SDS011;2920;48.158;12.254;2022-10-10T10:12:23;5.18;;;2.50;;
5787;SDS011;2920;48.158;12.254;2022-10-10T10:14:51;5.72;;;2.88;;
5787;SDS011;2920;48.158;12.254;2022-10-10T10:17:22;4.88;;;3.00;;
5787;SDS011;2920;48.158;12.254;2022-10-10T10:19:48;5.03;;;2.63;;
5787;SDS011;2920;48.158;12.254;2022-10-10T10:22:24;6.65;;;3.45;;
5787;SDS011;2920;48.158;12.254;2022-10-10T10:24:50;5.07;;;2.90;;
5787;SDS011;2920;48.158;12.254;2022-10-10T10:27:20;5.80;;;2.92;;
5787;SDS011;2920;48.158;12.254;2022-10-10T10:29:47;7.30;;;3.15;;
5787;SDS011;2920;48.158;12.254;2022-10-10T10:49:15;9.70;;;2.60;;
5787;SDS011;2920;48.158;12.254;2022-10-10T11:07:29;4.90;;;2.30;;
5787;SDS011;2920;48.158;12.254;2022-10-10T11:10:02;5.30;;;2.47;;
5787;SDS011;2920;48.158;12.254;2022-10-10T11:12:48;4.90;;;2.60;;
5787;SDS011;2920;48.158;12.254;2022-10-10T11:18:18;4.40;;;2.40;;
5787;SDS011;2920;48.158;12.254;2022-10-10T11:20:57;5.18;;;2.45;;
5787;SDS011;2920;48.158;12.254;2022-10-10T11:23:36;4.63;;;2.53;;
5787;SDS011;2920;48.158;12.254;2022-10-10T11:29:01;5.05;;;2.47;;
5787;SDS011;2920;48.158;12.254;2022-10-10T11:31:32;5.85;;;2.83;;
5787;SDS011;2920;48.158;12.254;2022-10-10T11:34:03;3.53;;;1.83;;
5787;SDS011;2920;48.158;12.254;2022-10-10T11:36:33;4.82;;;2.70;;
5787;SDS011;2920;48.158;12.254;2022-10-10T11:41:40;9.38;;;2.42;;
5787;SDS011;2920;48.158;12.254;2022-10-10T11:44:28;5.07;;;2.55;;
5787;SDS011;2920;48.158;12.254;2022-10-10T11:49:39;7.10;;;2.53;;
5787;SDS011;2920;48.158;12.254;2022-10-10T11:55:08;21.25;;;3.00;;
5787;SDS011;2920;48.158;12.254;2022-10-10T11:57:40;5.63;;;2.25;;
5787;SDS011;2920;48.158;12.254;2022-10-10T12:00:15;6.45;;;2.97;;
5787;SDS011;2920;48.158;12.254;2022-10-10T12:02:42;7.22;;;2.55;;
5787;SDS011;2920;48.158;12.254;2022-10-10T12:05:18;5.82;;;2.72;;
5787;SDS011;2920;48.158;12.254;2022-10-10T12:10:21;3.08;;;2.20;;
5787;SDS011;2920;48.158;12.254;2022-10-10T12:12:49;7.43;;;2.85;;
5787;SDS011;2920;48.158;12.254;2022-10-10T12:15:28;7.13;;;2.63;;
5787;SDS011;2920;48.158;12.254;2022-10-10T12:17:57;4.50;;;2.75;;
5787;SDS011;2920;48.158;12.254;2022-10-10T12:25:42;2.72;;;2.17;;
5787;SDS011;2920;48.158;12.254;2022-10-10T12:35:50;4.25;;;2.50;;
5787;SDS011;2920;48.158;12.254;2022-10-10T12:38:16;6.38;;;2.78;;
5787;SDS011;2920;48.158;12.254;2022-10-10T12:43:41;4.40;;;2.47;;
5787;SDS011;2920;48.158;12.254;2022-10-10T12:46:25;2.38;;;2.08;;
5787;SDS011;2920;48.158;12.254;2022-10-10T12:48:58;4.95;;;2.33;;
5787;SDS011;2920;48.158;12.254;2022-10-10T12:51:25;4.75;;;2.03;;
5787;SDS011;2920;48.158;12.254;2022-10-10T12:53:52;3.67;;;2.05;;
5787;SDS011;2920;48.158;12.254;2022-10-10T12:56:30;5.60;;;2.50;;
5787;SDS011;2920;48.158;12.254;2022-10-10T12:59:01;5.28;;;2.10;;
5787;SDS011;2920;48.158;12.254;2022-10-10T13:01:28;5.57;;;1.90;;
5787;SDS011;2920;48.158;12.254;2022-10-10T13:03:55;4.13;;;2.55;;
5787;SDS011;2920;48.158;12.254;2022-10-10T13:09:07;3.53;;;2.00;;
5787;SDS011;2920;48.158;12.254;2022-10-10T13:12:40;3.47;;;1.75;;
5787;SDS011;2920;48.158;12.254;2022-10-10T13:14:51;3.28;;;1.40;;
5787;SDS011;2920;48.158;12.254;2022-10-10T13:17:24;4.95;;;2.58;;
5787;SDS011;2920;48.158;12.254;2022-10-10T13:19:52;7.05;;;2.90;;
5787;SDS011;2920;48.158;12.254;2022-10-10T13:22:18;5.50;;;1.92;;
5787;SDS011;2920;48.158;12.254;2022-10-10T13:24:44;16.13;;;4.80;;
5787;SDS011;2920;48.158;12.254;2022-10-10T13:27:17;4.63;;;1.77;;
5787;SDS011;2920;48.158;12.254;2022-10-10T13:29:45;4.43;;;1.50;;
5787;SDS011;2920;48.158;12.254;2022-10-10T13:32:21;2.47;;;1.60;;
5787;SDS011;2920;48.158;12.254;2022-10-10T13:34:51;2.83;;;1.73;;
5787;SDS011;2920;48.158;12.254;2022-10-10T13:37:18;4.07;;;1.38;;
5787;SDS011;2920;48.158;12.254;2022-10-10T13:39:44;2.45;;;1.30;;
5787;SDS011;2920;48.158;12.254;2022-10-10T13:42:29;2.38;;;1.50;;
5787;SDS011;2920;48.158;12.254;2022-10-10T13:44:55;4.13;;;1.80;;
5787;SDS011;2920;48.158;12.254;2022-10-10T13:50:30;6.53;;;2.05;;
5787;SDS011;2920;48.158;12.254;2022-10-10T14:04:15;5.60;;;1.67;;
5787;SDS011;2920;48.158;12.254;2022-10-10T14:06:47;3.22;;;1.50;;
5787;SDS011;2920;48.158;12.254;2022-10-10T14:11:39;1.63;;;1.30;;
5787;SDS011;2920;48.158;12.254;2022-10-10T14:14:12;4.57;;;1.40;;
5787;SDS011;2920;48.158;12.254;2022-10-10T14:16:40;2.72;;;1.55;;
5787;SDS011;2920;48.158;12.254;2022-10-10T14:19:38;4.10;;;1.20;;
5787;SDS011;2920;48.158;12.254;2022-10-10T14:21:57;6.13;;;1.52;;
5787;SDS011;2920;48.158;12.254;2022-10-10T14:24:22;3.72;;;1.48;;
5787;SDS011;2920;48.158;12.254;2022-10-10T14:26:48;6.18;;;1.88;;
5787;SDS011;2920;48.158;12.254;2022-10-10T14:29:13;1.63;;;1.27;;
5787;SDS011;2920;48.158;12.254;2022-10-10T14:31:40;4.32;;;1.40;;
5787;SDS011;2920;48.158;12.254;2022-10-10T14:34:10;4.75;;;1.58;;
5787;SDS011;2920;48.158;12.254;2022-10-10T14:39:04;1.90;;;1.23;;
5787;SDS011;2920;48.158;12.254;2022-10-10T14:41:29;1.50;;;1.00;;
5787;SDS011;2920;48.158;12.254;2022-10-10T14:43:55;4.40;;;2.67;;
5787;SDS011;2920;48.158;12.254;2022-10-10T14:46:20;5.50;;;3.80;;
5787;SDS011;2920;48.158;12.254;2022-10-10T14:48:45;2.92;;;2.42;;
5787;SDS011;2920;48.158;12.254;2022-10-10T14:51:11;3.55;;;2.13;;
5787;SDS011;2920;48.158;12.254;2022-10-10T14:53:37;4.55;;;2.30;;
5787;SDS011;2920;48.158;12.254;2022-10-10T14:56:03;3.40;;;2.90;;
5787;SDS011;2920;48.158;12.254;2022-10-10T14:58:28;3.53;;;2.33;;
5787;SDS011;2920;48.158;12.254;2022-10-10T15:00:54;2.83;;;2.13;;
5787;SDS011;2920;48.158;12.254;2022-10-10T15:03:19;2.15;;;1.80;;
5787;SDS011;2920;48.158;12.254;2022-10-10T15:05:45;3.15;;;1.70;;
5787;SDS011;2920;48.158;12.254;2022-10-10T15:08:12;2.53;;;1.45;;
5787;SDS011;2920;48.158;12.254;2022-10-10T15:10:39;1.95;;;1.40;;
5787;SDS011;2920;48.158;12.254;2022-10-10T15:13:04;3.10;;;1.40;;
5787;SDS011;2920;48.158;12.254;2022-10-10T15:15:30;1.58;;;1.30;;
5787;SDS011;2920;48.158;12.254;2022-10-10T15:17:56;1.58;;;1.20;;
5787;SDS011;2920;48.158;12.254;2022-10-10T15:20:22;3.13;;;1.40;;
5787;SDS011;2920;48.158;12.254;2022-10-10T15:22:54;1.50;;;1.33;;
5787;SDS011;2920;48.158;12.254;2022-10-10T15:25:19;1.58;;;1.25;;
5787;SDS011;2920;48.158;12.254;2022-10-10T15:27:45;2.65;;;1.20;;
5787;SDS011;2920;48.158;12.254;2022-10-10T15:30:10;1.20;;;1.10;;
5787;SDS011;2920;48.158;12.254;2022-10-10T15:32:36;1.40;;;1.10;;
5787;SDS011;2920;48.158;12.254;2022-10-10T15:35:03;1.10;;;1.00;;
5787;SDS011;2920;48.158;12.254;2022-10-10T15:37:28;1.33;;;1.10;;
5787;SDS011;2920;48.158;12.254;2022-10-10T15:39:54;0.93;;;0.90;;
5787;SDS011;2920;48.158;12.254;2022-10-10T15:42:19;1.35;;;1.05;;
5787;SDS011;2920;48.158;12.254;2022-10-10T15:44:45;2.38;;;1.23;;
5787;SDS011;2920;48.158;12.254;2022-10-10T15:47:11;2.17;;;1.58;;
5787;SDS011;2920;48.158;12.254;2022-10-10T15:49:37;1.73;;;1.25;;
5787;SDS011;2920;48.158;12.254;2022-10-10T15:52:03;4.82;;;1.60;;
5787;SDS011;2920;48.158;12.254;2022-10-10T15:54:29;1.45;;;1.30;;
5787;SDS011;2920;48.158;12.254;2022-10-10T15:56:55;1.50;;;1.30;;
5787;SDS011;2920;48.158;12.254;2022-10-10T15:59:20;2.70;;;1.38;;
5787;SDS011;2920;48.158;12.254;2022-10-10T16:01:45;5.05;;;2.45;;
5787;SDS011;2920;48.158;12.254;2022-10-10T16:04:11;2.40;;;1.77;;
5787;SDS011;2920;48.158;12.254;2022-10-10T16:06:36;5.10;;;2.80;;
5787;SDS011;2920;48.158;12.254;2022-10-10T16:09:01;3.42;;;1.95;;
5787;SDS011;2920;48.158;12.254;2022-10-10T16:11:27;4.88;;;1.98;;
5787;SDS011;2920;48.158;12.254;2022-10-10T16:13:52;2.50;;;2.00;;
5787;SDS011;2920;48.158;12.254;2022-10-10T16:16:19;3.53;;;2.33;;
5787;SDS011;2920;48.158;12.254;2022-10-10T16:18:46;4.68;;;3.55;;
5787;SDS011;2920;48.158;12.254;2022-10-10T16:21:21;4.78;;;3.65;;
5787;SDS011;2920;48.158;12.254;2022-10-10T16:23:49;5.55;;;3.63;;
5787;SDS011;2920;48.158;12.254;2022-10-10T16:26:19;6.22;;;3.80;;
5787;SDS011;2920;48.158;12.254;2022-10-10T16:28:47;6.75;;;3.97;;
5787;SDS011;2920;48.158;12.254;2022-10-10T16:31:13;7.35;;;4.28;;
5787;SDS011;2920;48.158;12.254;2022-10-10T16:33:41;5.85;;;3.85;;
5787;SDS011;2920;48.158;12.254;2022-10-10T16:36:11;4.97;;;3.20;;
5787;SDS011;2920;48.158;12.254;2022-10-10T16:38:40;4.53;;;3.30;;
5787;SDS011;2920;48.158;12.254;2022-10-10T16:41:06;4.18;;;3.05;;
5787;SDS011;2920;48.158;12.254;2022-10-10T16:43:40;3.58;;;2.83;;
5787;SDS011;2920;48.158;12.254;2022-10-10T16:46:06;2.83;;;2.30;;
5787;SDS011;2920;48.158;12.254;2022-10-10T16:48:33;3.88;;;2.50;;
5787;SDS011;2920;48.158;12.254;2022-10-10T16:51:00;6.05;;;2.40;;
5787;SDS011;2920;48.158;12.254;2022-10-10T16:53:29;2.67;;;1.90;;
5787;SDS011;2920;48.158;12.254;2022-10-10T16:56:02;3.00;;;2.15;;
5787;SDS011;2920;48.158;12.254;2022-10-10T16:58:30;3.47;;;2.20;;
5787;SDS011;2920;48.158;12.254;2022-10-10T17:00:55;2.97;;;1.63;;
5787;SDS011;2920;48.158;12.254;2022-10-10T17:03:21;3.33;;;1.83;;
5787;SDS011;2920;48.158;12.254;2022-10-10T17:05:48;3.72;;;1.80;;
5787;SDS011;2920;48.158;12.254;2022-10-10T17:08:13;3.00;;;1.73;;
5787;SDS011;2920;48.158;12.254;2022-10-10T17:10:38;1.83;;;1.50;;
5787;SDS011;2920;48.158;12.254;2022-10-10T17:13:04;2.58;;;1.73;;
5787;SDS011;2920;48.158;12.254;2022-10-10T17:15:29;1.92;;;1.58;;
5787;SDS011;2920;48.158;12.254;2022-10-10T17:17:55;2.20;;;1.60;;
5787;SDS011;2920;48.158;12.254;2022-10-10T17:20:20;3.20;;;1.95;;
5787;SDS011;2920;48.158;12.254;2022-10-10T17:22:46;3.20;;;1.40;;
5787;SDS011;2920;48.158;12.254;2022-10-10T17:25:11;1.65;;;1.25;;
5787;SDS011;2920;48.158;12.254;2022-10-10T17:27:37;1.58;;;1.42;;